This is the latest recevied weather packets stored in our database for station/object LRAR. If no packets are shown the sender has not sent any weather packets the latest 10 day(s).
| Time | Temp. | Humidity | Pressure | Rain* | Wind** | Luminosity | Snow |
|---|---|---|---|---|---|---|---|
| 1777114119 | 21.11° C | 40% | 1014 hPa | - | - | - | - |
| 1777113219 | 21.11° C | 40% | 1014 hPa | - | - | - | - |
| 1777112319 | 20° C | 38% | 1014 hPa | - | - | - | - |
| 1777111418 | 20° C | 38% | 1014 hPa | - | - | - | - |
| 1777110519 | 20° C | 43% | 1015 hPa | - | - | - | - |
| 1777109662 | 20° C | 43% | 1015 hPa | - | - | - | - |
| 1777108719 | 18.89° C | 46% | 1015 hPa | - | - | - | - |
| 1777107818 | 18.89° C | 46% | 1015 hPa | - | - | - | - |
| 1777106918 | 17.78° C | 49% | 1015 hPa | - | - | - | - |
| 1777106019 | 17.78° C | 49% | 1015 hPa | - | - | - | - |
| 1777105118 | 17.22° C | 52% | 1015 hPa | - | - | - | - |
| 1777104218 | 17.22° C | 52% | 1015 hPa | - | - | - | - |
| 1777103319 | 16.11° C | 59% | 1015 hPa | - | - | - | - |
| 1777102418 | 16.11° C | 59% | 1015 hPa | - | - | - | - |
| 1777101538 | 13.89° C | 63% | 1015 hPa | - | - | - | - |
| 1777100618 | 13.89° C | 63% | 1015 hPa | - | - | - | - |
| 1777099719 | 12.78° C | 67% | 1015 hPa | - | - | - | - |
| 1777098818 | 12.78° C | 67% | 1015 hPa | - | - | - | - |
| 1777097918 | 11.11° C | 77% | 1015 hPa | - | - | - | - |
| 1777097019 | 11.11° C | 77% | 1015 hPa | - | - | - | - |
| 1777096118 | 10° C | 76% | 1015 hPa | - | - | - | - |
| 1777095218 | 10° C | 76% | 1015 hPa | - | - | - | - |
| 1777094318 | 7.78° C | 82% | 1015 hPa | - | - | - | - |
| 1777093420 | 7.78° C | 82% | 1015 hPa | - | - | - | - |
| 1777092598 | 7.22° C | 81% | 1014 hPa | - | - | - | - |
* Rain since midnight (hover to see other rain measurements)
** Current wind speed in m/s (hover to see current wind gust speed)